sensor_id;sensor_type;location;lat;lon;timestamp;temperature;humidity
46440;DHT22;32138;50.966;6.968;2023-06-14T00:00:22;22.70;56.50
46440;DHT22;32138;50.966;6.968;2023-06-14T00:01:23;22.70;56.80
46440;DHT22;32138;50.966;6.968;2023-06-14T00:02:24;22.70;57.10
46440;DHT22;32138;50.966;6.968;2023-06-14T00:03:25;22.60;57.20
46440;DHT22;32138;50.966;6.968;2023-06-14T00:04:26;22.50;57.00
46440;DHT22;32138;50.966;6.968;2023-06-14T00:05:27;22.50;57.40
46440;DHT22;32138;50.966;6.968;2023-06-14T00:06:29;22.50;57.30
46440;DHT22;32138;50.966;6.968;2023-06-14T00:07:37;22.50;57.30
46440;DHT22;32138;50.966;6.968;2023-06-14T00:08:42;22.40;57.40
46440;DHT22;32138;50.966;6.968;2023-06-14T00:09:43;22.40;57.20
46440;DHT22;32138;50.966;6.968;2023-06-14T00:10:44;22.40;57.40
46440;DHT22;32138;50.966;6.968;2023-06-14T00:11:45;22.40;56.90
46440;DHT22;32138;50.966;6.968;2023-06-14T00:12:46;22.40;57.10
46440;DHT22;32138;50.966;6.968;2023-06-14T00:13:47;22.30;57.50
46440;DHT22;32138;50.966;6.968;2023-06-14T00:14:47;22.30;57.60
46440;DHT22;32138;50.966;6.968;2023-06-14T00:15:49;22.30;57.80
46440;DHT22;32138;50.966;6.968;2023-06-14T00:16:49;22.30;57.80
46440;DHT22;32138;50.966;6.968;2023-06-14T00:17:52;22.30;57.80
46440;DHT22;32138;50.966;6.968;2023-06-14T00:18:55;22.30;57.90
46440;DHT22;32138;50.966;6.968;2023-06-14T00:19:57;22.30;58.00
46440;DHT22;32138;50.966;6.968;2023-06-14T00:21:00;22.30;58.00
46440;DHT22;32138;50.966;6.968;2023-06-14T00:22:02;22.20;58.10
46440;DHT22;32138;50.966;6.968;2023-06-14T00:23:03;22.20;58.10
46440;DHT22;32138;50.966;6.968;2023-06-14T00:24:04;22.20;57.90
46440;DHT22;32138;50.966;6.968;2023-06-14T00:25:06;22.20;57.60
46440;DHT22;32138;50.966;6.968;2023-06-14T00:26:06;22.20;57.80
46440;DHT22;32138;50.966;6.968;2023-06-14T00:27:07;22.20;58.00
46440;DHT22;32138;50.966;6.968;2023-06-14T00:28:08;22.20;58.00
46440;DHT22;32138;50.966;6.968;2023-06-14T00:29:09;22.10;57.60
46440;DHT22;32138;50.966;6.968;2023-06-14T00:30:10;22.10;57.40
46440;DHT22;32138;50.966;6.968;2023-06-14T00:31:11;22.10;57.90
46440;DHT22;32138;50.966;6.968;2023-06-14T00:32:12;22.10;58.80
46440;DHT22;32138;50.966;6.968;2023-06-14T00:33:13;22.10;58.10
46440;DHT22;32138;50.966;6.968;2023-06-14T00:34:14;22.10;58.30
46440;DHT22;32138;50.966;6.968;2023-06-14T00:35:15;21.90;58.60
46440;DHT22;32138;50.966;6.968;2023-06-14T00:36:16;21.90;58.60
46440;DHT22;32138;50.966;6.968;2023-06-14T00:37:17;21.90;58.80
46440;DHT22;32138;50.966;6.968;2023-06-14T00:38:17;21.80;58.80
46440;DHT22;32138;50.966;6.968;2023-06-14T00:39:18;21.70;59.10
46440;DHT22;32138;50.966;6.968;2023-06-14T00:40:19;21.80;59.00
46440;DHT22;32138;50.966;6.968;2023-06-14T00:41:19;21.80;58.90
46440;DHT22;32138;50.966;6.968;2023-06-14T00:42:24;21.80;58.60
46440;DHT22;32138;50.966;6.968;2023-06-14T00:43:25;21.80;58.50
46440;DHT22;32138;50.966;6.968;2023-06-14T00:44:26;21.80;58.60
46440;DHT22;32138;50.966;6.968;2023-06-14T00:45:27;21.80;58.00
46440;DHT22;32138;50.966;6.968;2023-06-14T00:46:28;21.70;58.10
46440;DHT22;32138;50.966;6.968;2023-06-14T00:47:28;21.70;58.40
46440;DHT22;32138;50.966;6.968;2023-06-14T00:48:29;21.70;58.10
46440;DHT22;32138;50.966;6.968;2023-06-14T00:49:32;21.60;58.40
46440;DHT22;32138;50.966;6.968;2023-06-14T00:50:32;21.60;58.40
46440;DHT22;32138;50.966;6.968;2023-06-14T00:51:34;21.70;58.50
46440;DHT22;32138;50.966;6.968;2023-06-14T00:52:35;21.80;58.40
46440;DHT22;32138;50.966;6.968;2023-06-14T00:53:36;21.70;58.40
46440;DHT22;32138;50.966;6.968;2023-06-14T00:54:40;21.60;58.40
46440;DHT22;32138;50.966;6.968;2023-06-14T00:55:44;21.60;58.50
46440;DHT22;32138;50.966;6.968;2023-06-14T00:56:45;21.60;58.80
46440;DHT22;32138;50.966;6.968;2023-06-14T00:57:46;21.70;58.90
46440;DHT22;32138;50.966;6.968;2023-06-14T00:58:48;21.80;59.20
46440;DHT22;32138;50.966;6.968;2023-06-14T00:59:49;21.80;59.20
46440;DHT22;32138;50.966;6.968;2023-06-14T01:00:50;21.80;59.40
46440;DHT22;32138;50.966;6.968;2023-06-14T01:01:51;21.80;59.40
46440;DHT22;32138;50.966;6.968;2023-06-14T01:02:52;21.80;59.40
46440;DHT22;32138;50.966;6.968;2023-06-14T01:03:53;21.70;59.70
46440;DHT22;32138;50.966;6.968;2023-06-14T01:04:55;21.80;59.70
46440;DHT22;32138;50.966;6.968;2023-06-14T01:09:33;21.80;59.70
46440;DHT22;32138;50.966;6.968;2023-06-14T01:11:07;21.70;59.60
46440;DHT22;32138;50.966;6.968;2023-06-14T01:12:29;21.40;59.60
46440;DHT22;32138;50.966;6.968;2023-06-14T01:13:39;21.50;60.10
46440;DHT22;32138;50.966;6.968;2023-06-14T01:14:43;21.50;60.10
46440;DHT22;32138;50.966;6.968;2023-06-14T01:15:45;21.60;59.80
46440;DHT22;32138;50.966;6.968;2023-06-14T01:16:47;21.70;59.60
46440;DHT22;32138;50.966;6.968;2023-06-14T01:17:50;21.60;59.50
46440;DHT22;32138;50.966;6.968;2023-06-14T01:18:58;21.40;59.70
46440;DHT22;32138;50.966;6.968;2023-06-14T01:20:01;21.30;59.80
46440;DHT22;32138;50.966;6.968;2023-06-14T01:21:03;21.40;59.80
46440;DHT22;32138;50.966;6.968;2023-06-14T01:22:07;21.30;60.00
46440;DHT22;32138;50.966;6.968;2023-06-14T01:23:08;21.30;61.00
46440;DHT22;32138;50.966;6.968;2023-06-14T01:24:09;21.20;60.40
46440;DHT22;32138;50.966;6.968;2023-06-14T01:25:11;21.30;61.40
46440;DHT22;32138;50.966;6.968;2023-06-14T01:26:12;21.30;61.80
46440;DHT22;32138;50.966;6.968;2023-06-14T01:27:13;21.30;61.30
46440;DHT22;32138;50.966;6.968;2023-06-14T01:28:16;21.40;61.30
46440;DHT22;32138;50.966;6.968;2023-06-14T01:29:17;21.40;60.90
46440;DHT22;32138;50.966;6.968;2023-06-14T01:30:19;21.30;60.80
46440;DHT22;32138;50.966;6.968;2023-06-14T01:31:21;21.30;60.70
46440;DHT22;32138;50.966;6.968;2023-06-14T01:32:26;21.30;60.60
46440;DHT22;32138;50.966;6.968;2023-06-14T01:33:29;21.30;60.60
46440;DHT22;32138;50.966;6.968;2023-06-14T01:34:31;21.10;60.60
46440;DHT22;32138;50.966;6.968;2023-06-14T01:35:32;21.20;60.70
46440;DHT22;32138;50.966;6.968;2023-06-14T01:36:32;21.20;60.90
46440;DHT22;32138;50.966;6.968;2023-06-14T01:37:34;21.20;60.30
46440;DHT22;32138;50.966;6.968;2023-06-14T01:38:36;21.20;60.60
46440;DHT22;32138;50.966;6.968;2023-06-14T01:39:37;21.20;60.80
46440;DHT22;32138;50.966;6.968;2023-06-14T01:40:39;21.20;60.80
46440;DHT22;32138;50.966;6.968;2023-06-14T01:41:40;21.30;60.90
46440;DHT22;32138;50.966;6.968;2023-06-14T01:42:42;21.30;60.90
46440;DHT22;32138;50.966;6.968;2023-06-14T01:43:45;21.30;60.90
46440;DHT22;32138;50.966;6.968;2023-06-14T01:44:46;21.20;61.00
46440;DHT22;32138;50.966;6.968;2023-06-14T01:45:48;21.10;61.20
46440;DHT22;32138;50.966;6.968;2023-06-14T01:46:51;21.10;61.40
46440;DHT22;32138;50.966;6.968;2023-06-14T01:47:52;21.10;61.60
46440;DHT22;32138;50.966;6.968;2023-06-14T01:48:53;21.00;61.50
46440;DHT22;32138;50.966;6.968;2023-06-14T01:49:53;20.90;61.50
46440;DHT22;32138;50.966;6.968;2023-06-14T01:50:54;21.00;61.50
46440;DHT22;32138;50.966;6.968;2023-06-14T01:51:55;20.90;61.40
46440;DHT22;32138;50.966;6.968;2023-06-14T01:52:56;20.80;61.40
46440;DHT22;32138;50.966;6.968;2023-06-14T01:53:57;20.80;61.40
46440;DHT22;32138;50.966;6.968;2023-06-14T01:54:58;20.80;61.30
46440;DHT22;32138;50.966;6.968;2023-06-14T01:56:02;20.90;61.00
46440;DHT22;32138;50.966;6.968;2023-06-14T01:57:04;20.90;60.80
46440;DHT22;32138;50.966;6.968;2023-06-14T01:58:04;21.00;60.90
46440;DHT22;32138;50.966;6.968;2023-06-14T01:59:05;21.10;60.60
46440;DHT22;32138;50.966;6.968;2023-06-14T02:00:06;21.10;60.70
46440;DHT22;32138;50.966;6.968;2023-06-14T02:01:10;21.00;60.60
46440;DHT22;32138;50.966;6.968;2023-06-14T02:02:13;21.00;61.00
46440;DHT22;32138;50.966;6.968;2023-06-14T02:03:14;21.00;60.90
46440;DHT22;32138;50.966;6.968;2023-06-14T02:04:15;21.00;60.90
46440;DHT22;32138;50.966;6.968;2023-06-14T02:05:16;20.90;61.10
46440;DHT22;32138;50.966;6.968;2023-06-14T02:06:19;20.90;61.20
46440;DHT22;32138;50.966;6.968;2023-06-14T02:07:19;20.90;61.30
46440;DHT22;32138;50.966;6.968;2023-06-14T02:08:20;20.90;61.40
46440;DHT22;32138;50.966;6.968;2023-06-14T02:09:21;20.80;61.20
46440;DHT22;32138;50.966;6.968;2023-06-14T02:10:22;20.90;61.40
46440;DHT22;32138;50.966;6.968;2023-06-14T02:11:23;20.80;61.60
46440;DHT22;32138;50.966;6.968;2023-06-14T02:12:23;20.80;61.70
46440;DHT22;32138;50.966;6.968;2023-06-14T02:13:24;20.60;61.60
46440;DHT22;32138;50.966;6.968;2023-06-14T02:14:25;20.60;61.90
46440;DHT22;32138;50.966;6.968;2023-06-14T02:15:26;20.70;62.00
46440;DHT22;32138;50.966;6.968;2023-06-14T02:16:33;20.50;61.90
46440;DHT22;32138;50.966;6.968;2023-06-14T02:17:36;20.50;62.40
46440;DHT22;32138;50.966;6.968;2023-06-14T02:18:36;20.60;62.40
46440;DHT22;32138;50.966;6.968;2023-06-14T02:19:37;20.60;62.30
46440;DHT22;32138;50.966;6.968;2023-06-14T02:20:39;20.60;62.10
46440;DHT22;32138;50.966;6.968;2023-06-14T02:21:39;20.50;62.50
46440;DHT22;32138;50.966;6.968;2023-06-14T02:22:40;20.40;62.50
46440;DHT22;32138;50.966;6.968;2023-06-14T02:23:41;20.50;62.50
46440;DHT22;32138;50.966;6.968;2023-06-14T02:24:42;20.50;62.40
46440;DHT22;32138;50.966;6.968;2023-06-14T02:25:43;20.50;62.40
46440;DHT22;32138;50.966;6.968;2023-06-14T02:26:46;20.50;62.30
46440;DHT22;32138;50.966;6.968;2023-06-14T02:27:47;20.50;62.40
46440;DHT22;32138;50.966;6.968;2023-06-14T02:28:48;20.50;62.30
46440;DHT22;32138;50.966;6.968;2023-06-14T02:29:48;20.50;62.30
46440;DHT22;32138;50.966;6.968;2023-06-14T02:30:49;20.40;62.50
46440;DHT22;32138;50.966;6.968;2023-06-14T02:31:50;20.40;62.40
46440;DHT22;32138;50.966;6.968;2023-06-14T02:32:51;20.50;62.00
46440;DHT22;32138;50.966;6.968;2023-06-14T02:33:53;20.60;62.00
46440;DHT22;32138;50.966;6.968;2023-06-14T02:34:54;20.60;62.50
46440;DHT22;32138;50.966;6.968;2023-06-14T02:35:55;20.30;62.80
46440;DHT22;32138;50.966;6.968;2023-06-14T02:36:56;20.20;62.80
46440;DHT22;32138;50.966;6.968;2023-06-14T02:37:57;20.20;62.00
46440;DHT22;32138;50.966;6.968;2023-06-14T02:38:58;20.30;61.80
46440;DHT22;32138;50.966;6.968;2023-06-14T02:39:59;20.30;62.50
46440;DHT22;32138;50.966;6.968;2023-06-14T02:40:59;20.40;62.70
46440;DHT22;32138;50.966;6.968;2023-06-14T02:42:02;20.50;62.60
46440;DHT22;32138;50.966;6.968;2023-06-14T02:43:03;20.40;62.80
46440;DHT22;32138;50.966;6.968;2023-06-14T02:44:03;20.40;62.70
46440;DHT22;32138;50.966;6.968;2023-06-14T02:45:05;20.50;62.80
46440;DHT22;32138;50.966;6.968;2023-06-14T02:46:06;20.60;62.40
46440;DHT22;32138;50.966;6.968;2023-06-14T02:47:07;20.60;62.50
46440;DHT22;32138;50.966;6.968;2023-06-14T02:48:08;20.60;62.60
46440;DHT22;32138;50.966;6.968;2023-06-14T02:49:09;20.60;62.70
46440;DHT22;32138;50.966;6.968;2023-06-14T02:50:11;20.60;62.80
46440;DHT22;32138;50.966;6.968;2023-06-14T02:51:12;20.60;62.80
46440;DHT22;32138;50.966;6.968;2023-06-14T02:52:13;20.60;63.10
46440;DHT22;32138;50.966;6.968;2023-06-14T02:53:13;20.60;62.60
46440;DHT22;32138;50.966;6.968;2023-06-14T02:54:14;20.60;62.40
46440;DHT22;32138;50.966;6.968;2023-06-14T02:55:15;20.60;62.60
46440;DHT22;32138;50.966;6.968;2023-06-14T02:56:16;20.50;62.70
46440;DHT22;32138;50.966;6.968;2023-06-14T02:57:23;20.40;62.80
46440;DHT22;32138;50.966;6.968;2023-06-14T02:58:23;20.30;63.00
46440;DHT22;32138;50.966;6.968;2023-06-14T02:59:25;20.20;63.30
46440;DHT22;32138;50.966;6.968;2023-06-14T03:00:26;20.30;63.20
46440;DHT22;32138;50.966;6.968;2023-06-14T03:01:31;20.30;63.30
46440;DHT22;32138;50.966;6.968;2023-06-14T03:02:34;20.20;63.40
46440;DHT22;32138;50.966;6.968;2023-06-14T03:03:35;20.30;63.50
46440;DHT22;32138;50.966;6.968;2023-06-14T03:04:36;20.10;63.70
46440;DHT22;32138;50.966;6.968;2023-06-14T03:05:46;20.10;63.80
46440;DHT22;32138;50.966;6.968;2023-06-14T03:06:50;20.20;63.70
46440;DHT22;32138;50.966;6.968;2023-06-14T03:07:50;20.10;63.50
46440;DHT22;32138;50.966;6.968;2023-06-14T03:08:51;20.30;63.60
46440;DHT22;32138;50.966;6.968;2023-06-14T03:09:55;20.20;63.50
46440;DHT22;32138;50.966;6.968;2023-06-14T03:10:56;20.20;63.70
46440;DHT22;32138;50.966;6.968;2023-06-14T03:11:56;20.10;63.70
46440;DHT22;32138;50.966;6.968;2023-06-14T03:12:57;20.10;63.60
46440;DHT22;32138;50.966;6.968;2023-06-14T03:13:58;20.20;63.00
46440;DHT22;32138;50.966;6.968;2023-06-14T03:15:07;20.20;61.60
46440;DHT22;32138;50.966;6.968;2023-06-14T03:16:09;20.20;62.50
46440;DHT22;32138;50.966;6.968;2023-06-14T03:17:10;20.30;62.40
46440;DHT22;32138;50.966;6.968;2023-06-14T03:18:11;20.30;63.00
46440;DHT22;32138;50.966;6.968;2023-06-14T03:19:16;20.20;63.60
46440;DHT22;32138;50.966;6.968;2023-06-14T03:20:17;20.20;63.60
46440;DHT22;32138;50.966;6.968;2023-06-14T03:21:21;20.10;63.70
46440;DHT22;32138;50.966;6.968;2023-06-14T03:22:22;20.20;63.50
46440;DHT22;32138;50.966;6.968;2023-06-14T03:23:24;20.10;63.00
46440;DHT22;32138;50.966;6.968;2023-06-14T03:24:25;20.20;63.50
46440;DHT22;32138;50.966;6.968;2023-06-14T03:25:29;20.20;61.70
46440;DHT22;32138;50.966;6.968;2023-06-14T03:26:30;20.20;61.30
46440;DHT22;32138;50.966;6.968;2023-06-14T03:27:31;20.20;61.70
46440;DHT22;32138;50.966;6.968;2023-06-14T03:28:32;20.30;62.50
46440;DHT22;32138;50.966;6.968;2023-06-14T03:29:33;20.30;62.50
46440;DHT22;32138;50.966;6.968;2023-06-14T03:30:33;20.40;62.60
46440;DHT22;32138;50.966;6.968;2023-06-14T03:31:35;20.50;63.10
46440;DHT22;32138;50.966;6.968;2023-06-14T03:32:36;20.50;62.60
46440;DHT22;32138;50.966;6.968;2023-06-14T03:33:36;20.50;62.40
46440;DHT22;32138;50.966;6.968;2023-06-14T03:34:37;20.30;60.50
46440;DHT22;32138;50.966;6.968;2023-06-14T03:35:41;20.20;61.10
46440;DHT22;32138;50.966;6.968;2023-06-14T03:36:42;20.30;61.60
46440;DHT22;32138;50.966;6.968;2023-06-14T03:37:46;20.40;62.40
46440;DHT22;32138;50.966;6.968;2023-06-14T03:38:47;20.20;63.10
46440;DHT22;32138;50.966;6.968;2023-06-14T03:39:48;20.30;62.90
46440;DHT22;32138;50.966;6.968;2023-06-14T03:40:48;20.20;62.90
46440;DHT22;32138;50.966;6.968;2023-06-14T03:41:49;20.00;62.60
46440;DHT22;32138;50.966;6.968;2023-06-14T03:42:50;20.00;63.00
46440;DHT22;32138;50.966;6.968;2023-06-14T03:43:51;20.00;63.20
46440;DHT22;32138;50.966;6.968;2023-06-14T03:44:51;20.10;63.30
46440;DHT22;32138;50.966;6.968;2023-06-14T03:45:52;19.90;63.40
46440;DHT22;32138;50.966;6.968;2023-06-14T03:46:53;20.00;63.70
46440;DHT22;32138;50.966;6.968;2023-06-14T03:47:54;20.00;63.50
46440;DHT22;32138;50.966;6.968;2023-06-14T03:48:55;20.10;63.40
46440;DHT22;32138;50.966;6.968;2023-06-14T03:49:56;20.10;63.10
46440;DHT22;32138;50.966;6.968;2023-06-14T03:50:56;20.10;62.60
46440;DHT22;32138;50.966;6.968;2023-06-14T03:51:58;20.10;62.90
46440;DHT22;32138;50.966;6.968;2023-06-14T03:53:00;20.20;63.00
46440;DHT22;32138;50.966;6.968;2023-06-14T03:54:01;20.20;63.00
46440;DHT22;32138;50.966;6.968;2023-06-14T03:55:02;20.30;63.10
46440;DHT22;32138;50.966;6.968;2023-06-14T03:56:03;20.30;63.10
46440;DHT22;32138;50.966;6.968;2023-06-14T03:57:04;20.30;63.10
46440;DHT22;32138;50.966;6.968;2023-06-14T03:58:06;20.40;63.10
46440;DHT22;32138;50.966;6.968;2023-06-14T03:59:07;20.40;63.00
46440;DHT22;32138;50.966;6.968;2023-06-14T04:00:09;20.30;63.10
46440;DHT22;32138;50.966;6.968;2023-06-14T04:01:11;20.20;63.30
46440;DHT22;32138;50.966;6.968;2023-06-14T04:02:12;20.20;63.30
46440;DHT22;32138;50.966;6.968;2023-06-14T04:03:16;20.30;63.20
46440;DHT22;32138;50.966;6.968;2023-06-14T04:04:17;20.20;63.20
46440;DHT22;32138;50.966;6.968;2023-06-14T04:05:18;20.30;63.10
46440;DHT22;32138;50.966;6.968;2023-06-14T04:06:20;20.30;63.70
46440;DHT22;32138;50.966;6.968;2023-06-14T04:07:21;20.30;62.90
46440;DHT22;32138;50.966;6.968;2023-06-14T04:08:22;20.30;63.00
46440;DHT22;32138;50.966;6.968;2023-06-14T04:09:25;19.90;63.60
46440;DHT22;32138;50.966;6.968;2023-06-14T04:10:26;20.00;64.00
46440;DHT22;32138;50.966;6.968;2023-06-14T04:11:27;20.00;64.00
46440;DHT22;32138;50.966;6.968;2023-06-14T04:12:27;20.10;63.90
46440;DHT22;32138;50.966;6.968;2023-06-14T04:13:28;20.10;63.80
46440;DHT22;32138;50.966;6.968;2023-06-14T04:14:29;20.10;63.80
46440;DHT22;32138;50.966;6.968;2023-06-14T04:15:31;20.10;63.80
46440;DHT22;32138;50.966;6.968;2023-06-14T04:16:31;20.10;63.70
46440;DHT22;32138;50.966;6.968;2023-06-14T04:17:32;20.00;63.90
46440;DHT22;32138;50.966;6.968;2023-06-14T04:18:34;20.00;64.10
46440;DHT22;32138;50.966;6.968;2023-06-14T04:19:35;20.10;64.00
46440;DHT22;32138;50.966;6.968;2023-06-14T04:20:36;20.20;64.30
46440;DHT22;32138;50.966;6.968;2023-06-14T04:21:36;20.20;64.10
46440;DHT22;32138;50.966;6.968;2023-06-14T04:22:37;20.30;64.80
46440;DHT22;32138;50.966;6.968;2023-06-14T04:23:38;20.20;64.30
46440;DHT22;32138;50.966;6.968;2023-06-14T04:24:39;20.20;64.40
46440;DHT22;32138;50.966;6.968;2023-06-14T04:25:40;20.30;64.80
46440;DHT22;32138;50.966;6.968;2023-06-14T04:26:44;20.20;64.60
46440;DHT22;32138;50.966;6.968;2023-06-14T04:27:45;20.20;65.30
46440;DHT22;32138;50.966;6.968;2023-06-14T04:28:47;20.30;65.50
46440;DHT22;32138;50.966;6.968;2023-06-14T04:29:48;20.30;65.20
46440;DHT22;32138;50.966;6.968;2023-06-14T04:30:49;20.40;65.10
46440;DHT22;32138;50.966;6.968;2023-06-14T04:31:50;20.50;64.80
46440;DHT22;32138;50.966;6.968;2023-06-14T04:32:52;20.50;64.90
46440;DHT22;32138;50.966;6.968;2023-06-14T04:33:54;20.50;65.00
46440;DHT22;32138;50.966;6.968;2023-06-14T04:34:58;20.50;64.60
46440;DHT22;32138;50.966;6.968;2023-06-14T04:35:59;20.50;64.70
46440;DHT22;32138;50.966;6.968;2023-06-14T04:37:00;20.60;64.90
46440;DHT22;32138;50.966;6.968;2023-06-14T04:38:02;20.60;63.70
46440;DHT22;32138;50.966;6.968;2023-06-14T04:39:05;20.70;64.80
46440;DHT22;32138;50.966;6.968;2023-06-14T04:40:07;20.60;63.60
46440;DHT22;32138;50.966;6.968;2023-06-14T04:41:08;20.70;63.40
46440;DHT22;32138;50.966;6.968;2023-06-14T04:42:11;20.70;62.80
46440;DHT22;32138;50.966;6.968;2023-06-14T04:43:14;20.80;62.50
46440;DHT22;32138;50.966;6.968;2023-06-14T04:44:18;20.70;62.90
46440;DHT22;32138;50.966;6.968;2023-06-14T04:45:19;20.70;63.00
46440;DHT22;32138;50.966;6.968;2023-06-14T04:46:20;20.80;63.10
46440;DHT22;32138;50.966;6.968;2023-06-14T04:47:21;20.80;63.60
46440;DHT22;32138;50.966;6.968;2023-06-14T04:48:22;20.80;61.90
46440;DHT22;32138;50.966;6.968;2023-06-14T04:49:23;20.70;60.90
46440;DHT22;32138;50.966;6.968;2023-06-14T04:50:25;20.70;61.50
46440;DHT22;32138;50.966;6.968;2023-06-14T04:51:26;20.60;60.00
46440;DHT22;32138;50.966;6.968;2023-06-14T04:52:29;20.60;60.40
46440;DHT22;32138;50.966;6.968;2023-06-14T04:53:30;20.50;60.50
46440;DHT22;32138;50.966;6.968;2023-06-14T04:54:31;20.60;59.90
46440;DHT22;32138;50.966;6.968;2023-06-14T04:55:34;20.50;59.90
46440;DHT22;32138;50.966;6.968;2023-06-14T04:56:34;20.30;59.90
46440;DHT22;32138;50.966;6.968;2023-06-14T04:57:35;20.40;60.20
46440;DHT22;32138;50.966;6.968;2023-06-14T04:58:39;20.50;60.50
46440;DHT22;32138;50.966;6.968;2023-06-14T04:59:40;20.50;60.10
46440;DHT22;32138;50.966;6.968;2023-06-14T05:00:44;20.60;60.00
46440;DHT22;32138;50.966;6.968;2023-06-14T05:01:45;20.60;59.60
46440;DHT22;32138;50.966;6.968;2023-06-14T05:02:48;20.50;59.90
46440;DHT22;32138;50.966;6.968;2023-06-14T05:03:51;20.60;59.60
46440;DHT22;32138;50.966;6.968;2023-06-14T05:04:53;20.80;60.00
46440;DHT22;32138;50.966;6.968;2023-06-14T05:05:54;20.90;59.70
46440;DHT22;32138;50.966;6.968;2023-06-14T05:06:55;20.90;59.80
46440;DHT22;32138;50.966;6.968;2023-06-14T05:07:56;20.90;59.70
46440;DHT22;32138;50.966;6.968;2023-06-14T05:08:56;20.90;60.30
46440;DHT22;32138;50.966;6.968;2023-06-14T05:09:57;21.00;60.50
46440;DHT22;32138;50.966;6.968;2023-06-14T05:10:58;21.00;60.20
46440;DHT22;32138;50.966;6.968;2023-06-14T05:11:59;21.10;60.00
46440;DHT22;32138;50.966;6.968;2023-06-14T05:13:00;21.10;59.60
46440;DHT22;32138;50.966;6.968;2023-06-14T05:14:01;21.10;60.20
46440;DHT22;32138;50.966;6.968;2023-06-14T05:15:02;21.20;60.00
46440;DHT22;32138;50.966;6.968;2023-06-14T05:16:03;21.20;60.40
46440;DHT22;32138;50.966;6.968;2023-06-14T05:17:04;21.10;60.90
46440;DHT22;32138;50.966;6.968;2023-06-14T05:18:06;21.20;60.80
46440;DHT22;32138;50.966;6.968;2023-06-14T05:19:09;21.30;61.10
46440;DHT22;32138;50.966;6.968;2023-06-14T05:20:10;21.30;60.90
46440;DHT22;32138;50.966;6.968;2023-06-14T05:21:11;21.30;61.00
46440;DHT22;32138;50.966;6.968;2023-06-14T05:22:12;21.30;61.10
46440;DHT22;32138;50.966;6.968;2023-06-14T05:23:12;21.40;61.30
46440;DHT22;32138;50.966;6.968;2023-06-14T05:24:15;21.40;61.10
46440;DHT22;32138;50.966;6.968;2023-06-14T05:25:19;21.40;60.70
46440;DHT22;32138;50.966;6.968;2023-06-14T05:26:21;21.40;60.00
46440;DHT22;32138;50.966;6.968;2023-06-14T05:27:23;21.30;59.50
46440;DHT22;32138;50.966;6.968;2023-06-14T05:28:25;21.20;58.40
46440;DHT22;32138;50.966;6.968;2023-06-14T05:29:26;21.10;58.00
46440;DHT22;32138;50.966;6.968;2023-06-14T05:30:27;21.30;58.40
46440;DHT22;32138;50.966;6.968;2023-06-14T05:31:30;21.30;59.30
46440;DHT22;32138;50.966;6.968;2023-06-14T05:32:31;21.40;59.00
46440;DHT22;32138;50.966;6.968;2023-06-14T05:33:32;21.40;58.50
46440;DHT22;32138;50.966;6.968;2023-06-14T05:34:33;21.50;58.70
46440;DHT22;32138;50.966;6.968;2023-06-14T05:35:34;21.50;58.60
46440;DHT22;32138;50.966;6.968;2023-06-14T05:36:34;21.50;58.70
46440;DHT22;32138;50.966;6.968;2023-06-14T05:37:37;21.40;57.20
46440;DHT22;32138;50.966;6.968;2023-06-14T05:38:38;21.40;57.60
46440;DHT22;32138;50.966;6.968;2023-06-14T05:39:38;21.50;58.40
46440;DHT22;32138;50.966;6.968;2023-06-14T05:40:39;21.60;58.20
46440;DHT22;32138;50.966;6.968;2023-06-14T05:41:40;21.30;56.50
46440;DHT22;32138;50.966;6.968;2023-06-14T05:42:40;21.20;57.40
46440;DHT22;32138;50.966;6.968;2023-06-14T05:43:41;21.30;57.90
46440;DHT22;32138;50.966;6.968;2023-06-14T05:44:42;21.20;56.80
46440;DHT22;32138;50.966;6.968;2023-06-14T05:45:43;21.20;57.30
46440;DHT22;32138;50.966;6.968;2023-06-14T05:46:43;21.20;57.50
46440;DHT22;32138;50.966;6.968;2023-06-14T05:47:44;21.30;57.60
46440;DHT22;32138;50.966;6.968;2023-06-14T05:48:45;21.40;57.90
46440;DHT22;32138;50.966;6.968;2023-06-14T05:49:46;21.50;58.30
46440;DHT22;32138;50.966;6.968;2023-06-14T05:50:46;21.50;58.30
46440;DHT22;32138;50.966;6.968;2023-06-14T05:51:47;21.50;57.80
46440;DHT22;32138;50.966;6.968;2023-06-14T05:52:48;21.20;57.80
46440;DHT22;32138;50.966;6.968;2023-06-14T05:53:49;21.20;58.00
46440;DHT22;32138;50.966;6.968;2023-06-14T05:54:50;21.20;57.90
46440;DHT22;32138;50.966;6.968;2023-06-14T05:55:51;21.10;58.00
46440;DHT22;32138;50.966;6.968;2023-06-14T05:56:55;21.20;58.30
46440;DHT22;32138;50.966;6.968;2023-06-14T05:57:56;21.20;58.40
46440;DHT22;32138;50.966;6.968;2023-06-14T05:58:57;21.40;58.60
46440;DHT22;32138;50.966;6.968;2023-06-14T05:59:57;21.50;58.20
46440;DHT22;32138;50.966;6.968;2023-06-14T06:00:59;21.30;57.60
46440;DHT22;32138;50.966;6.968;2023-06-14T06:01:59;21.20;57.30
46440;DHT22;32138;50.966;6.968;2023-06-14T06:03:00;21.10;58.10
46440;DHT22;32138;50.966;6.968;2023-06-14T06:04:01;21.00;58.00
46440;DHT22;32138;50.966;6.968;2023-06-14T06:05:02;21.00;57.90
46440;DHT22;32138;50.966;6.968;2023-06-14T06:06:03;20.90;58.50
46440;DHT22;32138;50.966;6.968;2023-06-14T06:07:04;20.90;58.00
46440;DHT22;32138;50.966;6.968;2023-06-14T06:08:05;20.90;57.90
46440;DHT22;32138;50.966;6.968;2023-06-14T06:09:06;20.80;58.40
46440;DHT22;32138;50.966;6.968;2023-06-14T06:10:07;20.80;58.00
46440;DHT22;32138;50.966;6.968;2023-06-14T06:11:08;20.80;58.00
46440;DHT22;32138;50.966;6.968;2023-06-14T06:12:09;21.10;57.90
46440;DHT22;32138;50.966;6.968;2023-06-14T06:13:10;21.30;58.10
46440;DHT22;32138;50.966;6.968;2023-06-14T06:14:11;21.30;57.90
46440;DHT22;32138;50.966;6.968;2023-06-14T06:15:12;21.30;57.60
46440;DHT22;32138;50.966;6.968;2023-06-14T06:16:12;21.30;57.20
46440;DHT22;32138;50.966;6.968;2023-06-14T06:17:13;21.10;56.80
46440;DHT22;32138;50.966;6.968;2023-06-14T06:18:14;21.10;57.00
46440;DHT22;32138;50.966;6.968;2023-06-14T06:19:15;21.00;57.40
46440;DHT22;32138;50.966;6.968;2023-06-14T06:20:16;21.00;57.80
46440;DHT22;32138;50.966;6.968;2023-06-14T06:21:17;21.10;58.00
46440;DHT22;32138;50.966;6.968;2023-06-14T06:22:18;21.30;58.10
46440;DHT22;32138;50.966;6.968;2023-06-14T06:23:19;21.20;57.50
46440;DHT22;32138;50.966;6.968;2023-06-14T06:24:20;21.20;57.30
46440;DHT22;32138;50.966;6.968;2023-06-14T06:25:20;21.10;57.60
46440;DHT22;32138;50.966;6.968;2023-06-14T06:26:22;21.10;58.00
46440;DHT22;32138;50.966;6.968;2023-06-14T06:27:23;21.30;58.20
46440;DHT22;32138;50.966;6.968;2023-06-14T06:28:24;21.40;58.30
46440;DHT22;32138;50.966;6.968;2023-06-14T06:29:24;21.50;57.70
46440;DHT22;32138;50.966;6.968;2023-06-14T06:30:25;21.60;57.60
46440;DHT22;32138;50.966;6.968;2023-06-14T06:31:26;21.70;57.90
46440;DHT22;32138;50.966;6.968;2023-06-14T06:32:27;21.80;57.20